Date,TemperatureHighF,TemperatureAvgF,TemperatureLowF,DewpointHighF,DewpointAvgF,DewpointLowF,HumidityHigh,HumidityAvg,HumidityLow,PressureMaxIn,PressureMinIn,WindSpeedMaxMPH,WindSpeedAvgMPH,GustSpeedMaxMPH,PrecipitationSumIn
2013-5-1,86,73,51,62,57,44,85,61,32,30.58,30.31,16,8,21,0.00
2013-5-2,57,48,39,52,44,38,100,86,65,30.63,30.55,14,8,19,0.51
2013-5-3,48,43,38,48,42,37,100,99,96,30.56,30.35,11,7,17,0.51
2013-5-4,72,58,46,54,49,45,100,75,49,30.43,30.34,11,6,16,0.01
2013-5-5,74,60,46,50,46,41,100,64,39,30.45,30.40,10,5,17,0.00
2013-5-6,79,63,48,50,41,33,88,50,25,30.45,30.38,8,3,11,0.00
2013-5-7,81,65,48,52,44,39,90,53,28,30.45,30.38,9,3,12,0.00
2013-5-8,85,67,46,57,49,45,100,60,29,30.43,30.35,7,2,13,0.00
2013-5-9,70,58,43,64,53,43,100,85,59,30.35,30.26,15,4,18,0.28
2013-5-10,49,45,40,48,44,40,100,98,93,30.35,30.20,13,7,17,0.79
2013-5-11,54,46,38,52,39,31,100,80,47,30.38,30.14,16,6,22,0.01
2013-5-12,56,45,37,34,31,27,79,60,38,30.46,30.38,11,6,15,0.00
2013-5-13,67,49,32,42,34,27,100,64,28,30.53,30.32,10,4,16,0.00
2013-5-14,88,69,47,64,52,36,76,58,37,30.32,29.96,16,7,22,0.02
2013-5-15,83,73,56,64,52,44,80,52,30,30.24,29.96,9,4,14,0.00
2013-5-16,88,68,55,57,48,34,80,51,29,30.37,30.22,11,5,17,0.00
2013-5-17,65,56,48,52,47,34,100,73,46,30.48,30.35,10,6,15,0.30
2013-5-18,81,65,51,66,57,48,96,77,56,30.44,30.34,9,4,15,0.00
2013-5-19,86,72,57,71,65,56,100,80,60,30.34,30.08,20,7,27,0.01
2013-5-20,88,77,68,68,64,61,96,69,44,30.15,30.06,17,7,25,0.06
2013-5-21,82,70,62,68,64,59,100,82,52,30.09,30.01,20,7,27,0.11
2013-5-22,70,61,54,70,61,54,100,98,89,30.14,30.01,7,2,9,0.63
2013-5-23,58,50,39,54,47,37,100,91,66,30.66,30.13,14,6,21,0.07
2013-5-24,68,50,34,46,39,34,99,70,39,30.78,30.66,8,3,11,0.00
2013-5-25,64,52,41,44,39,33,91,64,39,30.74,30.64,8,3,12,0.00
2013-5-26,68,54,38,51,43,35,100,70,45,30.65,30.52,12,4,17,0.02
2013-5-27,54,52,50,52,50,43,100,93,72,30.52,30.25,11,6,17,0.04
2013-5-28,76,62,50,71,61,50,100,98,83,30.25,30.07,10,2,14,1.28
2013-5-29,84,73,64,73,68,64,99,86,62,30.29,30.13,12,5,17,0.01
2013-5-30,86,76,63,75,70,63,99,84,64,30.27,30.13,23,11,31,0.20
2013-5-31,78,69,63,72,66,62,100,90,68,30.22,30.07,18,8,26,0.20